sensor_id;sensor_type;location;lat;lon;timestamp;P1;durP1;ratioP1;P2;durP2;ratioP2
20639;SDS011;10479;53.524;9.846;2022-12-24T00:01:06;89.10;;;22.02;;
20639;SDS011;10479;53.524;9.846;2022-12-24T00:03:33;80.68;;;21.73;;
20639;SDS011;10479;53.524;9.846;2022-12-24T00:06:04;80.03;;;19.88;;
20639;SDS011;10479;53.524;9.846;2022-12-24T00:08:37;75.63;;;20.48;;
20639;SDS011;10479;53.524;9.846;2022-12-24T00:11:05;80.05;;;19.80;;
20639;SDS011;10479;53.524;9.846;2022-12-24T00:13:32;72.32;;;18.55;;
20639;SDS011;10479;53.524;9.846;2022-12-24T00:15:58;73.18;;;18.83;;
20639;SDS011;10479;53.524;9.846;2022-12-24T00:18:34;87.22;;;21.13;;
20639;SDS011;10479;53.524;9.846;2022-12-24T00:21:00;80.50;;;19.65;;
20639;SDS011;10479;53.524;9.846;2022-12-24T00:23:29;79.80;;;21.27;;
20639;SDS011;10479;53.524;9.846;2022-12-24T00:25:54;87.25;;;21.45;;
20639;SDS011;10479;53.524;9.846;2022-12-24T00:28:22;75.70;;;19.10;;
20639;SDS011;10479;53.524;9.846;2022-12-24T00:30:47;77.60;;;20.05;;
20639;SDS011;10479;53.524;9.846;2022-12-24T00:33:13;73.97;;;19.65;;
20639;SDS011;10479;53.524;9.846;2022-12-24T00:35:40;84.35;;;20.90;;
20639;SDS011;10479;53.524;9.846;2022-12-24T00:38:13;91.07;;;21.45;;
20639;SDS011;10479;53.524;9.846;2022-12-24T00:40:40;70.72;;;19.65;;
20639;SDS011;10479;53.524;9.846;2022-12-24T00:43:06;68.05;;;19.60;;
20639;SDS011;10479;53.524;9.846;2022-12-24T00:45:35;65.70;;;18.92;;
20639;SDS011;10479;53.524;9.846;2022-12-24T00:48:00;73.68;;;19.95;;
20639;SDS011;10479;53.524;9.846;2022-12-24T00:50:32;75.10;;;20.48;;
20639;SDS011;10479;53.524;9.846;2022-12-24T00:52:58;64.40;;;18.88;;
20639;SDS011;10479;53.524;9.846;2022-12-24T00:55:25;70.75;;;20.27;;
20639;SDS011;10479;53.524;9.846;2022-12-24T00:57:53;77.45;;;19.58;;
20639;SDS011;10479;53.524;9.846;2022-12-24T01:00:18;74.25;;;20.15;;
20639;SDS011;10479;53.524;9.846;2022-12-24T01:02:45;84.13;;;20.63;;
20639;SDS011;10479;53.524;9.846;2022-12-24T01:05:15;82.57;;;20.48;;
20639;SDS011;10479;53.524;9.846;2022-12-24T01:07:49;76.07;;;19.33;;
20639;SDS011;10479;53.524;9.846;2022-12-24T01:10:16;75.90;;;20.65;;
20639;SDS011;10479;53.524;9.846;2022-12-24T01:12:50;71.05;;;19.45;;
20639;SDS011;10479;53.524;9.846;2022-12-24T01:15:16;77.25;;;19.50;;
20639;SDS011;10479;53.524;9.846;2022-12-24T01:17:45;84.25;;;21.42;;
20639;SDS011;10479;53.524;9.846;2022-12-24T01:20:16;83.45;;;22.55;;
20639;SDS011;10479;53.524;9.846;2022-12-24T01:22:42;74.05;;;19.35;;
20639;SDS011;10479;53.524;9.846;2022-12-24T01:25:08;86.82;;;20.65;;
20639;SDS011;10479;53.524;9.846;2022-12-24T01:27:36;77.85;;;20.33;;
20639;SDS011;10479;53.524;9.846;2022-12-24T01:30:22;80.13;;;19.65;;
20639;SDS011;10479;53.524;9.846;2022-12-24T01:32:55;79.82;;;20.73;;
20639;SDS011;10479;53.524;9.846;2022-12-24T01:35:21;76.85;;;20.27;;
20639;SDS011;10479;53.524;9.846;2022-12-24T01:37:47;89.55;;;20.80;;
20639;SDS011;10479;53.524;9.846;2022-12-24T01:40:13;76.15;;;20.25;;
20639;SDS011;10479;53.524;9.846;2022-12-24T01:43:01;77.78;;;19.35;;
20639;SDS011;10479;53.524;9.846;2022-12-24T01:45:53;74.55;;;18.42;;
20639;SDS011;10479;53.524;9.846;2022-12-24T01:48:22;77.57;;;20.42;;
20639;SDS011;10479;53.524;9.846;2022-12-24T01:53:56;69.65;;;18.90;;
20639;SDS011;10479;53.524;9.846;2022-12-24T01:56:23;79.05;;;20.27;;
20639;SDS011;10479;53.524;9.846;2022-12-24T01:58:51;82.35;;;20.58;;
20639;SDS011;10479;53.524;9.846;2022-12-24T02:01:37;78.20;;;19.45;;
20639;SDS011;10479;53.524;9.846;2022-12-24T02:04:07;72.72;;;19.80;;
20639;SDS011;10479;53.524;9.846;2022-12-24T02:07:04;95.25;;;21.83;;
20639;SDS011;10479;53.524;9.846;2022-12-24T02:09:40;77.63;;;19.42;;
20639;SDS011;10479;53.524;9.846;2022-12-24T02:12:07;81.47;;;19.67;;
20639;SDS011;10479;53.524;9.846;2022-12-24T02:14:33;80.82;;;20.23;;
20639;SDS011;10479;53.524;9.846;2022-12-24T02:28:02;96.15;;;22.05;;
20639;SDS011;10479;53.524;9.846;2022-12-24T02:31:01;90.72;;;20.67;;
20639;SDS011;10479;53.524;9.846;2022-12-24T02:33:38;90.95;;;20.70;;
20639;SDS011;10479;53.524;9.846;2022-12-24T02:36:32;86.40;;;21.40;;
20639;SDS011;10479;53.524;9.846;2022-12-24T02:39:05;104.63;;;22.63;;
20639;SDS011;10479;53.524;9.846;2022-12-24T02:41:44;90.63;;;20.83;;
20639;SDS011;10479;53.524;9.846;2022-12-24T02:47:38;97.47;;;22.25;;
20639;SDS011;10479;53.524;9.846;2022-12-24T02:50:12;91.10;;;21.75;;
20639;SDS011;10479;53.524;9.846;2022-12-24T02:52:41;89.15;;;21.58;;
20639;SDS011;10479;53.524;9.846;2022-12-24T02:57:45;115.10;;;24.15;;
20639;SDS011;10479;53.524;9.846;2022-12-24T03:00:24;82.60;;;21.13;;
20639;SDS011;10479;53.524;9.846;2022-12-24T03:06:07;76.82;;;20.02;;
20639;SDS011;10479;53.524;9.846;2022-12-24T03:09:01;68.80;;;18.42;;
20639;SDS011;10479;53.524;9.846;2022-12-24T03:11:43;76.78;;;18.98;;
20639;SDS011;10479;53.524;9.846;2022-12-24T03:14:13;71.85;;;18.48;;
20639;SDS011;10479;53.524;9.846;2022-12-24T03:16:39;91.95;;;20.25;;
20639;SDS011;10479;53.524;9.846;2022-12-24T03:19:04;74.45;;;18.60;;
20639;SDS011;10479;53.524;9.846;2022-12-24T03:21:32;82.30;;;19.92;;
20639;SDS011;10479;53.524;9.846;2022-12-24T03:23:59;71.72;;;18.75;;
20639;SDS011;10479;53.524;9.846;2022-12-24T03:26:27;85.13;;;18.58;;
20639;SDS011;10479;53.524;9.846;2022-12-24T03:28:53;82.20;;;19.85;;
20639;SDS011;10479;53.524;9.846;2022-12-24T03:31:19;92.07;;;20.52;;
20639;SDS011;10479;53.524;9.846;2022-12-24T03:33:45;76.22;;;17.70;;
20639;SDS011;10479;53.524;9.846;2022-12-24T03:36:12;69.93;;;18.15;;
20639;SDS011;10479;53.524;9.846;2022-12-24T03:38:38;74.18;;;17.55;;
20639;SDS011;10479;53.524;9.846;2022-12-24T03:41:05;89.22;;;19.10;;
20639;SDS011;10479;53.524;9.846;2022-12-24T03:43:32;67.18;;;17.10;;
20639;SDS011;10479;53.524;9.846;2022-12-24T03:46:01;84.40;;;20.00;;
20639;SDS011;10479;53.524;9.846;2022-12-24T03:48:28;75.10;;;18.13;;
20639;SDS011;10479;53.524;9.846;2022-12-24T03:51:00;73.10;;;17.75;;
20639;SDS011;10479;53.524;9.846;2022-12-24T03:53:27;74.18;;;17.83;;
20639;SDS011;10479;53.524;9.846;2022-12-24T03:55:54;71.63;;;17.73;;
20639;SDS011;10479;53.524;9.846;2022-12-24T03:58:20;77.95;;;17.92;;
20639;SDS011;10479;53.524;9.846;2022-12-24T04:00:46;64.93;;;16.10;;
20639;SDS011;10479;53.524;9.846;2022-12-24T04:03:16;76.90;;;17.40;;
20639;SDS011;10479;53.524;9.846;2022-12-24T04:05:42;71.88;;;18.38;;
20639;SDS011;10479;53.524;9.846;2022-12-24T04:08:10;72.35;;;17.23;;
20639;SDS011;10479;53.524;9.846;2022-12-24T04:10:36;65.55;;;16.63;;
20639;SDS011;10479;53.524;9.846;2022-12-24T04:13:21;74.90;;;17.85;;
20639;SDS011;10479;53.524;9.846;2022-12-24T04:16:01;66.75;;;16.23;;
20639;SDS011;10479;53.524;9.846;2022-12-24T04:18:38;72.78;;;16.80;;
20639;SDS011;10479;53.524;9.846;2022-12-24T04:21:05;66.45;;;15.65;;
20639;SDS011;10479;53.524;9.846;2022-12-24T04:23:35;73.78;;;16.80;;
20639;SDS011;10479;53.524;9.846;2022-12-24T04:26:02;69.28;;;17.35;;
20639;SDS011;10479;53.524;9.846;2022-12-24T04:28:35;67.47;;;15.25;;
20639;SDS011;10479;53.524;9.846;2022-12-24T04:31:03;69.55;;;17.00;;
20639;SDS011;10479;53.524;9.846;2022-12-24T04:33:31;69.28;;;16.15;;
20639;SDS011;10479;53.524;9.846;2022-12-24T04:36:02;64.25;;;16.17;;
20639;SDS011;10479;53.524;9.846;2022-12-24T04:38:40;59.63;;;14.70;;
20639;SDS011;10479;53.524;9.846;2022-12-24T04:41:07;58.05;;;14.65;;
20639;SDS011;10479;53.524;9.846;2022-12-24T04:43:36;57.83;;;14.65;;
20639;SDS011;10479;53.524;9.846;2022-12-24T04:46:15;56.15;;;14.88;;
20639;SDS011;10479;53.524;9.846;2022-12-24T04:48:43;60.28;;;14.98;;
20639;SDS011;10479;53.524;9.846;2022-12-24T04:51:12;55.38;;;13.02;;
20639;SDS011;10479;53.524;9.846;2022-12-24T04:53:42;47.60;;;13.18;;
20639;SDS011;10479;53.524;9.846;2022-12-24T04:56:13;59.33;;;15.73;;
20639;SDS011;10479;53.524;9.846;2022-12-24T04:58:41;52.13;;;14.30;;
20639;SDS011;10479;53.524;9.846;2022-12-24T05:01:13;48.80;;;12.70;;
20639;SDS011;10479;53.524;9.846;2022-12-24T05:03:47;50.28;;;12.77;;
20639;SDS011;10479;53.524;9.846;2022-12-24T05:06:18;54.08;;;13.40;;
20639;SDS011;10479;53.524;9.846;2022-12-24T05:08:48;55.75;;;13.75;;
20639;SDS011;10479;53.524;9.846;2022-12-24T05:11:14;44.53;;;13.18;;
20639;SDS011;10479;53.524;9.846;2022-12-24T05:13:59;43.30;;;12.82;;
20639;SDS011;10479;53.524;9.846;2022-12-24T05:16:31;40.47;;;12.60;;
20639;SDS011;10479;53.524;9.846;2022-12-24T05:18:59;38.38;;;12.30;;
20639;SDS011;10479;53.524;9.846;2022-12-24T05:21:25;40.63;;;12.38;;
20639;SDS011;10479;53.524;9.846;2022-12-24T05:23:55;41.20;;;12.43;;
20639;SDS011;10479;53.524;9.846;2022-12-24T05:26:55;42.03;;;12.65;;
20639;SDS011;10479;53.524;9.846;2022-12-24T05:29:38;38.50;;;13.27;;
20639;SDS011;10479;53.524;9.846;2022-12-24T05:32:04;41.13;;;13.45;;
20639;SDS011;10479;53.524;9.846;2022-12-24T05:34:31;37.65;;;12.13;;
20639;SDS011;10479;53.524;9.846;2022-12-24T05:37:16;48.92;;;13.70;;
20639;SDS011;10479;53.524;9.846;2022-12-24T05:39:53;36.72;;;11.95;;
20639;SDS011;10479;53.524;9.846;2022-12-24T05:42:23;44.30;;;12.15;;
20639;SDS011;10479;53.524;9.846;2022-12-24T05:44:52;38.83;;;12.15;;
20639;SDS011;10479;53.524;9.846;2022-12-24T05:47:18;37.75;;;11.88;;
20639;SDS011;10479;53.524;9.846;2022-12-24T05:49:53;41.58;;;11.68;;
20639;SDS011;10479;53.524;9.846;2022-12-24T05:52:19;38.58;;;11.75;;
20639;SDS011;10479;53.524;9.846;2022-12-24T05:54:45;39.78;;;12.38;;
20639;SDS011;10479;53.524;9.846;2022-12-24T05:57:11;38.90;;;12.00;;
20639;SDS011;10479;53.524;9.846;2022-12-24T05:59:38;36.55;;;10.73;;
20639;SDS011;10479;53.524;9.846;2022-12-24T06:02:04;38.97;;;10.32;;
20639;SDS011;10479;53.524;9.846;2022-12-24T06:04:29;43.15;;;12.15;;
20639;SDS011;10479;53.524;9.846;2022-12-24T06:06:55;43.75;;;13.05;;
20639;SDS011;10479;53.524;9.846;2022-12-24T06:09:21;37.33;;;12.15;;
20639;SDS011;10479;53.524;9.846;2022-12-24T06:11:53;37.83;;;11.90;;
20639;SDS011;10479;53.524;9.846;2022-12-24T06:14:31;39.20;;;11.75;;
20639;SDS011;10479;53.524;9.846;2022-12-24T06:17:02;43.00;;;13.73;;
20639;SDS011;10479;53.524;9.846;2022-12-24T06:19:33;40.03;;;11.73;;
20639;SDS011;10479;53.524;9.846;2022-12-24T06:22:08;45.42;;;12.32;;
20639;SDS011;10479;53.524;9.846;2022-12-24T06:24:39;41.38;;;12.20;;
20639;SDS011;10479;53.524;9.846;2022-12-24T06:27:05;50.35;;;13.40;;
20639;SDS011;10479;53.524;9.846;2022-12-24T06:29:36;47.63;;;12.40;;
20639;SDS011;10479;53.524;9.846;2022-12-24T06:32:01;47.97;;;12.85;;
20639;SDS011;10479;53.524;9.846;2022-12-24T06:34:27;49.05;;;13.35;;
20639;SDS011;10479;53.524;9.846;2022-12-24T06:37:11;45.00;;;12.38;;
20639;SDS011;10479;53.524;9.846;2022-12-24T06:39:44;51.40;;;13.43;;
20639;SDS011;10479;53.524;9.846;2022-12-24T06:42:11;51.72;;;14.07;;
20639;SDS011;10479;53.524;9.846;2022-12-24T06:44:37;49.20;;;14.02;;
20639;SDS011;10479;53.524;9.846;2022-12-24T06:47:03;49.45;;;12.93;;
20639;SDS011;10479;53.524;9.846;2022-12-24T06:49:29;57.70;;;14.35;;
20639;SDS011;10479;53.524;9.846;2022-12-24T06:51:55;59.47;;;14.13;;
20639;SDS011;10479;53.524;9.846;2022-12-24T06:54:21;52.33;;;13.27;;
20639;SDS011;10479;53.524;9.846;2022-12-24T06:56:51;58.40;;;14.45;;
20639;SDS011;10479;53.524;9.846;2022-12-24T06:59:17;52.75;;;13.07;;
20639;SDS011;10479;53.524;9.846;2022-12-24T07:04:16;49.60;;;12.85;;
20639;SDS011;10479;53.524;9.846;2022-12-24T07:06:49;54.70;;;13.45;;
20639;SDS011;10479;53.524;9.846;2022-12-24T07:09:15;57.15;;;14.38;;
20639;SDS011;10479;53.524;9.846;2022-12-24T07:12:00;53.95;;;13.93;;
20639;SDS011;10479;53.524;9.846;2022-12-24T07:14:27;50.38;;;12.38;;
20639;SDS011;10479;53.524;9.846;2022-12-24T07:16:59;55.38;;;14.32;;
20639;SDS011;10479;53.524;9.846;2022-12-24T07:19:45;63.30;;;14.57;;
20639;SDS011;10479;53.524;9.846;2022-12-24T07:22:22;54.35;;;14.35;;
20639;SDS011;10479;53.524;9.846;2022-12-24T07:24:57;59.08;;;14.90;;
20639;SDS011;10479;53.524;9.846;2022-12-24T07:27:29;52.13;;;14.43;;
20639;SDS011;10479;53.524;9.846;2022-12-24T07:29:59;54.95;;;12.98;;
20639;SDS011;10479;53.524;9.846;2022-12-24T07:32:26;57.97;;;14.55;;
20639;SDS011;10479;53.524;9.846;2022-12-24T07:34:55;47.00;;;13.35;;
20639;SDS011;10479;53.524;9.846;2022-12-24T07:37:39;73.68;;;16.00;;
20639;SDS011;10479;53.524;9.846;2022-12-24T07:40:25;55.55;;;13.07;;
20639;SDS011;10479;53.524;9.846;2022-12-24T07:42:50;55.90;;;12.60;;
20639;SDS011;10479;53.524;9.846;2022-12-24T07:45:30;55.88;;;13.80;;
20639;SDS011;10479;53.524;9.846;2022-12-24T07:48:01;55.42;;;13.40;;
20639;SDS011;10479;53.524;9.846;2022-12-24T07:50:32;57.25;;;13.02;;
20639;SDS011;10479;53.524;9.846;2022-12-24T07:53:06;51.42;;;12.60;;
20639;SDS011;10479;53.524;9.846;2022-12-24T07:55:32;46.10;;;11.88;;
20639;SDS011;10479;53.524;9.846;2022-12-24T07:57:58;38.88;;;11.18;;
20639;SDS011;10479;53.524;9.846;2022-12-24T08:00:24;54.58;;;11.77;;
20639;SDS011;10479;53.524;9.846;2022-12-24T08:02:50;58.88;;;14.50;;
20639;SDS011;10479;53.524;9.846;2022-12-24T08:05:26;41.78;;;11.50;;
20639;SDS011;10479;53.524;9.846;2022-12-24T08:07:53;44.38;;;11.48;;
20639;SDS011;10479;53.524;9.846;2022-12-24T08:10:37;58.08;;;12.65;;
20639;SDS011;10479;53.524;9.846;2022-12-24T08:13:23;51.10;;;10.93;;
20639;SDS011;10479;53.524;9.846;2022-12-24T08:15:49;39.40;;;10.00;;
20639;SDS011;10479;53.524;9.846;2022-12-24T08:18:19;45.65;;;11.43;;
20639;SDS011;10479;53.524;9.846;2022-12-24T08:20:48;40.95;;;10.05;;
20639;SDS011;10479;53.524;9.846;2022-12-24T08:23:14;35.83;;;9.45;;
20639;SDS011;10479;53.524;9.846;2022-12-24T08:25:48;45.33;;;10.77;;
20639;SDS011;10479;53.524;9.846;2022-12-24T08:28:14;42.92;;;9.63;;
20639;SDS011;10479;53.524;9.846;2022-12-24T08:30:41;33.60;;;9.70;;
20639;SDS011;10479;53.524;9.846;2022-12-24T08:33:10;38.20;;;9.80;;
20639;SDS011;10479;53.524;9.846;2022-12-24T08:35:36;39.35;;;10.77;;
20639;SDS011;10479;53.524;9.846;2022-12-24T08:38:03;46.53;;;11.00;;
20639;SDS011;10479;53.524;9.846;2022-12-24T08:40:33;35.42;;;10.25;;
20639;SDS011;10479;53.524;9.846;2022-12-24T08:43:00;41.20;;;12.30;;
20639;SDS011;10479;53.524;9.846;2022-12-24T08:45:46;37.60;;;11.35;;
20639;SDS011;10479;53.524;9.846;2022-12-24T08:48:33;37.80;;;11.10;;
20639;SDS011;10479;53.524;9.846;2022-12-24T08:51:05;33.53;;;10.55;;
20639;SDS011;10479;53.524;9.846;2022-12-24T08:53:33;32.35;;;10.48;;
20639;SDS011;10479;53.524;9.846;2022-12-24T08:56:00;32.47;;;9.52;;
20639;SDS011;10479;53.524;9.846;2022-12-24T08:58:29;34.83;;;10.95;;
20639;SDS011;10479;53.524;9.846;2022-12-24T09:00:56;33.58;;;10.77;;
20639;SDS011;10479;53.524;9.846;2022-12-24T09:03:22;31.52;;;10.57;;
20639;SDS011;10479;53.524;9.846;2022-12-24T09:06:07;37.90;;;11.88;;
20639;SDS011;10479;53.524;9.846;2022-12-24T09:08:33;32.13;;;10.43;;
20639;SDS011;10479;53.524;9.846;2022-12-24T09:11:10;35.75;;;11.18;;
20639;SDS011;10479;53.524;9.846;2022-12-24T09:13:40;42.40;;;12.73;;
20639;SDS011;10479;53.524;9.846;2022-12-24T09:16:09;36.15;;;12.38;;
20639;SDS011;10479;53.524;9.846;2022-12-24T09:18:36;48.17;;;14.73;;
20639;SDS011;10479;53.524;9.846;2022-12-24T09:21:20;45.78;;;13.60;;
20639;SDS011;10479;53.524;9.846;2022-12-24T09:23:52;52.53;;;13.77;;
20639;SDS011;10479;53.524;9.846;2022-12-24T09:26:22;37.72;;;12.38;;
20639;SDS011;10479;53.524;9.846;2022-12-24T09:28:52;35.38;;;11.23;;
20639;SDS011;10479;53.524;9.846;2022-12-24T09:31:21;37.63;;;11.63;;
20639;SDS011;10479;53.524;9.846;2022-12-24T09:33:55;46.65;;;13.35;;
20639;SDS011;10479;53.524;9.846;2022-12-24T09:36:21;37.75;;;12.73;;
20639;SDS011;10479;53.524;9.846;2022-12-24T09:38:51;46.47;;;13.68;;
20639;SDS011;10479;53.524;9.846;2022-12-24T09:44:19;50.03;;;13.95;;
20639;SDS011;10479;53.524;9.846;2022-12-24T09:47:11;44.78;;;13.15;;
20639;SDS011;10479;53.524;9.846;2022-12-24T09:49:46;60.35;;;15.88;;
20639;SDS011;10479;53.524;9.846;2022-12-24T09:52:38;90.22;;;19.38;;
20639;SDS011;10479;53.524;9.846;2022-12-24T09:57:53;49.15;;;14.75;;
20639;SDS011;10479;53.524;9.846;2022-12-24T10:00:28;45.55;;;14.02;;
20639;SDS011;10479;53.524;9.846;2022-12-24T10:02:55;59.25;;;15.55;;
20639;SDS011;10479;53.524;9.846;2022-12-24T10:05:34;53.85;;;14.45;;
20639;SDS011;10479;53.524;9.846;2022-12-24T10:13:49;63.67;;;16.17;;
20639;SDS011;10479;53.524;9.846;2022-12-24T10:16:47;62.90;;;16.02;;
20639;SDS011;10479;53.524;9.846;2022-12-24T10:25:15;48.30;;;14.13;;
20639;SDS011;10479;53.524;9.846;2022-12-24T10:27:45;61.50;;;15.27;;
20639;SDS011;10479;53.524;9.846;2022-12-24T10:30:13;52.20;;;15.38;;
20639;SDS011;10479;53.524;9.846;2022-12-24T10:32:40;36.45;;;12.65;;
20639;SDS011;10479;53.524;9.846;2022-12-24T10:35:19;67.53;;;16.30;;
20639;SDS011;10479;53.524;9.846;2022-12-24T10:37:57;46.13;;;14.18;;
20639;SDS011;10479;53.524;9.846;2022-12-24T10:40:25;52.65;;;15.88;;
20639;SDS011;10479;53.524;9.846;2022-12-24T10:42:52;48.95;;;14.68;;
20639;SDS011;10479;53.524;9.846;2022-12-24T10:45:22;41.10;;;13.77;;
20639;SDS011;10479;53.524;9.846;2022-12-24T10:47:51;41.53;;;13.88;;
20639;SDS011;10479;53.524;9.846;2022-12-24T10:52:52;37.17;;;12.10;;
20639;SDS011;10479;53.524;9.846;2022-12-24T10:55:21;35.63;;;12.38;;
20639;SDS011;10479;53.524;9.846;2022-12-24T10:58:03;39.40;;;11.85;;
20639;SDS011;10479;53.524;9.846;2022-12-24T11:00:35;66.35;;;14.70;;
20639;SDS011;10479;53.524;9.846;2022-12-24T11:03:22;45.33;;;13.90;;
20639;SDS011;10479;53.524;9.846;2022-12-24T11:06:11;36.90;;;11.82;;
20639;SDS011;10479;53.524;9.846;2022-12-24T11:09:11;38.78;;;12.50;;
20639;SDS011;10479;53.524;9.846;2022-12-24T11:11:44;42.13;;;13.10;;
20639;SDS011;10479;53.524;9.846;2022-12-24T11:14:10;43.95;;;13.10;;
20639;SDS011;10479;53.524;9.846;2022-12-24T11:16:38;38.97;;;12.80;;
20639;SDS011;10479;53.524;9.846;2022-12-24T11:19:05;34.42;;;11.60;;
20639;SDS011;10479;53.524;9.846;2022-12-24T11:21:43;48.42;;;13.73;;
20639;SDS011;10479;53.524;9.846;2022-12-24T11:24:22;39.30;;;11.63;;
20639;SDS011;10479;53.524;9.846;2022-12-24T11:26:51;54.80;;;13.80;;
20639;SDS011;10479;53.524;9.846;2022-12-24T11:29:23;51.83;;;14.80;;
20639;SDS011;10479;53.524;9.846;2022-12-24T11:31:51;49.03;;;14.30;;
20639;SDS011;10479;53.524;9.846;2022-12-24T11:34:27;37.63;;;12.48;;
20639;SDS011;10479;53.524;9.846;2022-12-24T11:39:52;38.30;;;12.63;;
20639;SDS011;10479;53.524;9.846;2022-12-24T11:45:01;37.63;;;13.13;;
20639;SDS011;10479;53.524;9.846;2022-12-24T11:47:36;34.25;;;12.27;;
20639;SDS011;10479;53.524;9.846;2022-12-24T11:50:24;39.70;;;12.75;;
20639;SDS011;10479;53.524;9.846;2022-12-24T11:53:15;39.35;;;12.98;;
20639;SDS011;10479;53.524;9.846;2022-12-24T11:55:59;35.80;;;11.77;;
20639;SDS011;10479;53.524;9.846;2022-12-24T12:01:20;38.17;;;13.23;;
20639;SDS011;10479;53.524;9.846;2022-12-24T12:03:48;39.15;;;12.73;;
20639;SDS011;10479;53.524;9.846;2022-12-24T12:06:31;36.97;;;13.00;;
20639;SDS011;10479;53.524;9.846;2022-12-24T12:09:04;26.55;;;11.13;;
20639;SDS011;10479;53.524;9.846;2022-12-24T12:11:31;32.70;;;11.23;;
20639;SDS011;10479;53.524;9.846;2022-12-24T12:13:59;34.22;;;11.25;;
20639;SDS011;10479;53.524;9.846;2022-12-24T12:16:28;28.45;;;10.07;;
20639;SDS011;10479;53.524;9.846;2022-12-24T12:19:18;29.65;;;10.73;;
20639;SDS011;10479;53.524;9.846;2022-12-24T12:21:46;32.90;;;10.32;;
20639;SDS011;10479;53.524;9.846;2022-12-24T12:24:21;33.67;;;11.88;;
20639;SDS011;10479;53.524;9.846;2022-12-24T12:29:49;42.83;;;13.57;;
20639;SDS011;10479;53.524;9.846;2022-12-24T12:35:31;47.00;;;13.75;;
20639;SDS011;10479;53.524;9.846;2022-12-24T12:38:22;33.70;;;12.23;;
20639;SDS011;10479;53.524;9.846;2022-12-24T12:43:58;36.47;;;12.35;;
20639;SDS011;10479;53.524;9.846;2022-12-24T12:46:36;41.95;;;13.07;;
20639;SDS011;10479;53.524;9.846;2022-12-24T12:51:54;36.90;;;11.75;;
20639;SDS011;10479;53.524;9.846;2022-12-24T12:57:22;26.75;;;10.35;;
20639;SDS011;10479;53.524;9.846;2022-12-24T13:00:07;39.55;;;12.10;;
20639;SDS011;10479;53.524;9.846;2022-12-24T13:20:18;34.92;;;8.50;;
20639;SDS011;10479;53.524;9.846;2022-12-24T13:23:01;29.55;;;8.07;;
20639;SDS011;10479;53.524;9.846;2022-12-24T13:25:35;33.00;;;7.35;;
20639;SDS011;10479;53.524;9.846;2022-12-24T13:30:47;32.55;;;7.53;;
20639;SDS011;10479;53.524;9.846;2022-12-24T13:49:25;42.42;;;6.50;;
20639;SDS011;10479;53.524;9.846;2022-12-24T13:57:30;32.63;;;5.77;;
20639;SDS011;10479;53.524;9.846;2022-12-24T14:03:04;45.20;;;6.90;;
20639;SDS011;10479;53.524;9.846;2022-12-24T14:08:13;29.73;;;6.10;;
20639;SDS011;10479;53.524;9.846;2022-12-24T14:16:13;40.85;;;5.30;;
20639;SDS011;10479;53.524;9.846;2022-12-24T14:18:43;43.72;;;6.45;;
20639;SDS011;10479;53.524;9.846;2022-12-24T14:21:20;39.35;;;6.05;;
20639;SDS011;10479;53.524;9.846;2022-12-24T14:24:00;41.33;;;5.88;;
20639;SDS011;10479;53.524;9.846;2022-12-24T14:26:55;34.50;;;5.38;;
20639;SDS011;10479;53.524;9.846;2022-12-24T14:29:25;31.38;;;5.80;;
20639;SDS011;10479;53.524;9.846;2022-12-24T14:31:56;38.53;;;6.20;;
20639;SDS011;10479;53.524;9.846;2022-12-24T14:34:24;26.42;;;5.15;;
20639;SDS011;10479;53.524;9.846;2022-12-24T14:36:56;31.35;;;5.60;;
20639;SDS011;10479;53.524;9.846;2022-12-24T14:39:45;41.67;;;6.13;;
20639;SDS011;10479;53.524;9.846;2022-12-24T14:45:02;39.70;;;6.25;;
20639;SDS011;10479;53.524;9.846;2022-12-24T14:53:13;39.13;;;6.53;;
20639;SDS011;10479;53.524;9.846;2022-12-24T14:56:13;35.80;;;6.45;;
20639;SDS011;10479;53.524;9.846;2022-12-24T14:58:41;45.67;;;6.80;;
20639;SDS011;10479;53.524;9.846;2022-12-24T15:01:43;40.40;;;8.13;;
20639;SDS011;10479;53.524;9.846;2022-12-24T15:06:42;41.33;;;6.90;;
20639;SDS011;10479;53.524;9.846;2022-12-24T15:09:28;30.70;;;5.35;;
20639;SDS011;10479;53.524;9.846;2022-12-24T15:11:56;35.88;;;7.53;;
20639;SDS011;10479;53.524;9.846;2022-12-24T15:14:25;32.58;;;6.32;;
20639;SDS011;10479;53.524;9.846;2022-12-24T15:16:54;36.47;;;6.75;;
20639;SDS011;10479;53.524;9.846;2022-12-24T15:19:25;45.78;;;7.38;;
20639;SDS011;10479;53.524;9.846;2022-12-24T15:22:02;45.70;;;6.65;;
20639;SDS011;10479;53.524;9.846;2022-12-24T15:24:29;45.53;;;7.70;;
20639;SDS011;10479;53.524;9.846;2022-12-24T15:27:00;42.85;;;7.40;;
20639;SDS011;10479;53.524;9.846;2022-12-24T15:29:31;31.23;;;6.43;;
20639;SDS011;10479;53.524;9.846;2022-12-24T15:32:00;43.25;;;7.97;;
20639;SDS011;10479;53.524;9.846;2022-12-24T15:34:35;53.60;;;8.50;;
20639;SDS011;10479;53.524;9.846;2022-12-24T15:39:57;43.20;;;8.75;;
20639;SDS011;10479;53.524;9.846;2022-12-24T15:42:31;51.03;;;9.47;;
20639;SDS011;10479;53.524;9.846;2022-12-24T15:44:59;48.90;;;9.60;;
20639;SDS011;10479;53.524;9.846;2022-12-24T15:47:31;39.53;;;10.60;;
20639;SDS011;10479;53.524;9.846;2022-12-24T15:50:17;44.85;;;10.13;;
20639;SDS011;10479;53.524;9.846;2022-12-24T15:52:49;40.60;;;9.88;;
20639;SDS011;10479;53.524;9.846;2022-12-24T15:55:28;45.42;;;10.27;;
20639;SDS011;10479;53.524;9.846;2022-12-24T16:03:39;36.97;;;9.38;;
20639;SDS011;10479;53.524;9.846;2022-12-24T16:06:06;48.53;;;10.40;;
20639;SDS011;10479;53.524;9.846;2022-12-24T16:08:35;47.25;;;9.40;;
20639;SDS011;10479;53.524;9.846;2022-12-24T16:11:10;55.92;;;12.15;;
20639;SDS011;10479;53.524;9.846;2022-12-24T16:13:58;45.13;;;11.20;;
20639;SDS011;10479;53.524;9.846;2022-12-24T16:16:39;60.90;;;12.20;;
20639;SDS011;10479;53.524;9.846;2022-12-24T16:21:54;55.03;;;11.85;;
20639;SDS011;10479;53.524;9.846;2022-12-24T16:24:23;47.30;;;12.13;;
20639;SDS011;10479;53.524;9.846;2022-12-24T16:26:50;64.70;;;12.90;;
20639;SDS011;10479;53.524;9.846;2022-12-24T16:29:22;55.15;;;14.02;;
20639;SDS011;10479;53.524;9.846;2022-12-24T16:31:50;65.55;;;14.18;;
20639;SDS011;10479;53.524;9.846;2022-12-24T16:34:25;54.47;;;13.57;;
20639;SDS011;10479;53.524;9.846;2022-12-24T16:36:53;57.78;;;13.02;;
20639;SDS011;10479;53.524;9.846;2022-12-24T16:39:23;63.70;;;12.93;;
20639;SDS011;10479;53.524;9.846;2022-12-24T16:41:59;56.60;;;13.63;;
20639;SDS011;10479;53.524;9.846;2022-12-24T16:44:46;58.67;;;15.50;;
20639;SDS011;10479;53.524;9.846;2022-12-24T16:47:13;64.78;;;15.52;;
20639;SDS011;10479;53.524;9.846;2022-12-24T16:49:41;62.63;;;14.57;;
20639;SDS011;10479;53.524;9.846;2022-12-24T16:52:16;60.05;;;13.88;;
20639;SDS011;10479;53.524;9.846;2022-12-24T16:54:43;74.18;;;15.82;;
20639;SDS011;10479;53.524;9.846;2022-12-24T16:57:09;55.42;;;14.60;;
20639;SDS011;10479;53.524;9.846;2022-12-24T16:59:54;57.50;;;14.75;;
20639;SDS011;10479;53.524;9.846;2022-12-24T17:02:22;41.72;;;11.85;;
20639;SDS011;10479;53.524;9.846;2022-12-24T17:04:51;60.97;;;11.38;;
20639;SDS011;10479;53.524;9.846;2022-12-24T17:07:20;49.67;;;10.57;;
20639;SDS011;10479;53.524;9.846;2022-12-24T17:09:47;52.47;;;10.77;;
20639;SDS011;10479;53.524;9.846;2022-12-24T17:12:14;47.25;;;8.93;;
20639;SDS011;10479;53.524;9.846;2022-12-24T17:14:41;41.58;;;8.38;;
20639;SDS011;10479;53.524;9.846;2022-12-24T17:17:27;37.35;;;7.78;;